createdAt,value
2023-04-24T00:00:21.935Z,0.57
2023-04-24T00:02:58.244Z,0.67
2023-04-24T00:05:28.525Z,0.52
2023-04-24T00:07:56.319Z,0.40
2023-04-24T00:10:23.127Z,0.70
2023-04-24T00:12:49.795Z,0.70
2023-04-24T00:15:18.944Z,0.77
2023-04-24T00:17:48.629Z,0.30
2023-04-24T00:20:17.869Z,0.50
2023-04-24T00:22:44.721Z,0.40
2023-04-24T00:25:13.557Z,0.50
2023-04-24T00:27:47.473Z,0.52
2023-04-24T00:30:14.475Z,0.50
2023-04-24T00:32:43.677Z,0.50
2023-04-24T00:35:11.312Z,0.40
2023-04-24T00:37:38.036Z,0.40
2023-04-24T00:40:05.229Z,0.43
2023-04-24T00:42:32.265Z,0.40
2023-04-24T00:44:59.597Z,0.50
2023-04-24T00:47:26.605Z,0.40
2023-04-24T00:49:58.178Z,0.40
2023-04-24T00:52:25.378Z,0.55
2023-04-24T00:54:52.069Z,0.50
2023-04-24T00:57:21.265Z,0.47
2023-04-24T00:59:50.076Z,0.60
2023-04-24T01:02:16.795Z,0.57
2023-04-24T01:04:46.192Z,0.30
2023-04-24T01:07:12.980Z,0.60
2023-04-24T01:09:43.117Z,0.50
2023-04-24T01:12:12.497Z,0.52
2023-04-24T01:14:41.364Z,0.45
2023-04-24T01:17:08.329Z,0.30
2023-04-24T01:19:34.991Z,0.30
2023-04-24T01:22:06.025Z,0.57
2023-04-24T01:24:32.900Z,0.40
2023-04-24T01:26:59.563Z,0.40
2023-04-24T01:29:26.325Z,0.50
2023-04-24T01:31:53.387Z,0.40
2023-04-24T01:34:22.320Z,0.57
2023-04-24T01:36:49.245Z,0.82
2023-04-24T01:39:17.488Z,1.02
2023-04-24T01:41:46.674Z,1.20
2023-04-24T01:44:13.686Z,1.08
2023-04-24T01:46:40.481Z,1.05
2023-04-24T01:49:07.472Z,1.02
2023-04-24T01:51:34.187Z,1.23
2023-04-24T01:54:00.857Z,1.08
2023-04-24T01:56:31.030Z,1.00
2023-04-24T01:58:58.160Z,1.38
2023-04-24T02:01:25.768Z,1.30
2023-04-24T02:03:52.747Z,1.30
2023-04-24T02:06:19.504Z,1.30
2023-04-24T02:08:46.321Z,1.30
2023-04-24T02:11:15.316Z,1.38
2023-04-24T02:13:42.038Z,1.33
2023-04-24T02:16:08.838Z,1.63
2023-04-24T02:18:38.103Z,2.10
2023-04-24T02:21:06.368Z,1.67
2023-04-24T02:23:33.451Z,1.80
2023-04-24T02:26:00.553Z,1.90
2023-04-24T02:28:27.645Z,1.88
2023-04-24T02:30:56.804Z,2.05
2023-04-24T02:33:23.527Z,2.00
2023-04-24T02:35:50.646Z,1.80
2023-04-24T02:38:17.304Z,2.08
2023-04-24T02:40:46.255Z,2.40
2023-04-24T02:43:12.904Z,2.20
2023-04-24T02:45:39.639Z,2.13
2023-04-24T02:48:06.330Z,1.95
2023-04-24T02:50:34.486Z,1.88
2023-04-24T02:53:03.348Z,2.03
2023-04-24T02:55:32.352Z,2.22
2023-04-24T02:58:01.208Z,1.87
2023-04-24T03:00:28.315Z,2.10
2023-04-24T03:02:55.132Z,2.00
2023-04-24T03:05:22.022Z,2.40
2023-04-24T03:07:48.711Z,2.30
2023-04-24T03:10:15.426Z,2.33
2023-04-24T03:12:42.097Z,2.70
2023-04-24T03:15:09.505Z,2.47
2023-04-24T03:17:36.405Z,2.35
2023-04-24T03:20:03.580Z,2.92
2023-04-24T03:22:30.430Z,2.30
2023-04-24T03:24:57.636Z,2.58
2023-04-24T03:27:24.621Z,2.75
2023-04-24T03:29:56.141Z,2.70
2023-04-24T03:32:23.452Z,3.00
2023-04-24T03:34:51.052Z,2.38
2023-04-24T03:37:18.465Z,2.35
2023-04-24T03:39:45.454Z,2.78
2023-04-24T03:42:14.569Z,2.47
2023-04-24T03:44:41.240Z,2.38
2023-04-24T03:47:07.975Z,2.70
2023-04-24T03:49:34.647Z,2.17
2023-04-24T03:52:03.705Z,2.67
2023-04-24T03:54:32.884Z,2.30
2023-04-24T03:56:59.640Z,2.28
2023-04-24T03:59:26.333Z,2.30
2023-04-24T04:01:55.473Z,2.15
2023-04-24T04:04:22.264Z,2.58
2023-04-24T04:06:49.893Z,2.53
2023-04-24T04:09:18.887Z,2.33
2023-04-24T04:11:48.057Z,2.50
2023-04-24T04:14:15.143Z,2.57
2023-04-24T04:16:44.444Z,2.03
2023-04-24T04:19:11.268Z,2.50
2023-04-24T04:21:37.941Z,2.30
2023-04-24T04:24:08.188Z,2.45
2023-04-24T04:26:39.996Z,2.78
2023-04-24T04:29:07.667Z,2.35
2023-04-24T04:31:34.359Z,2.40
2023-04-24T04:34:02.537Z,2.35
2023-04-24T04:36:32.270Z,2.38
2023-04-24T04:39:01.370Z,2.40
2023-04-24T04:41:30.186Z,2.40
2023-04-24T04:43:59.551Z,2.60
2023-04-24T04:46:27.239Z,2.75
2023-04-24T04:48:57.702Z,2.83
2023-04-24T04:51:24.479Z,2.60
2023-04-24T04:53:53.601Z,2.50
2023-04-24T04:56:20.433Z,2.17
2023-04-24T04:58:47.145Z,2.25
2023-04-24T05:01:13.933Z,2.35
2023-04-24T05:03:41.069Z,2.58
2023-04-24T05:06:10.228Z,2.35
2023-04-24T05:08:39.251Z,2.37
2023-04-24T05:11:06.017Z,2.60
2023-04-24T05:13:39.758Z,2.55
2023-04-24T05:16:08.254Z,2.83
2023-04-24T05:18:37.551Z,2.10
2023-04-24T05:21:04.308Z,2.60
2023-04-24T05:23:31.536Z,2.10
2023-04-24T05:25:58.452Z,2.50
2023-04-24T05:28:29.244Z,2.65
2023-04-24T05:31:00.222Z,2.50
2023-04-24T05:33:26.918Z,2.70
2023-04-24T05:35:56.104Z,2.90
2023-04-24T05:38:22.819Z,2.90
2023-04-24T05:40:49.481Z,2.50
2023-04-24T05:43:18.786Z,2.72
2023-04-24T05:45:47.930Z,3.10
2023-04-24T05:48:14.712Z,2.63
2023-04-24T05:50:43.813Z,3.25
2023-04-24T05:53:13.040Z,2.90
2023-04-24T05:55:39.863Z,3.03
2023-04-24T05:58:07.087Z,3.00
2023-04-24T06:00:34.230Z,3.25
2023-04-24T06:03:04.856Z,3.20
2023-04-24T06:05:34.291Z,2.85
2023-04-24T06:08:00.970Z,3.75
2023-04-24T06:10:28.331Z,2.75
2023-04-24T06:12:57.257Z,3.10
2023-04-24T06:15:23.945Z,3.28
2023-04-24T06:17:50.727Z,2.95
2023-04-24T06:20:17.413Z,3.22
2023-04-24T06:22:46.601Z,3.00
2023-04-24T06:25:13.271Z,3.30
2023-04-24T06:27:40.063Z,3.53
2023-04-24T06:30:08.012Z,3.22
2023-04-24T06:32:34.713Z,2.97
2023-04-24T06:35:01.403Z,3.50
2023-04-24T06:37:28.377Z,3.38
2023-04-24T06:39:55.084Z,3.88
2023-04-24T06:42:25.678Z,3.53
2023-04-24T06:44:52.374Z,3.03
2023-04-24T06:47:21.642Z,3.08
2023-04-24T06:49:56.125Z,3.08
2023-04-24T06:52:22.774Z,3.35
2023-04-24T06:54:49.550Z,3.08
2023-04-24T06:57:17.254Z,3.53
2023-04-24T06:59:46.330Z,3.33
2023-04-24T07:02:13.095Z,2.60
2023-04-24T07:04:40.112Z,3.13
2023-04-24T07:07:07.837Z,4.43
2023-04-24T07:09:36.291Z,4.28
2023-04-24T07:12:03.174Z,2.67
2023-04-24T07:14:29.848Z,2.38
2023-04-24T07:16:58.021Z,2.72
2023-04-24T07:19:24.770Z,2.55
2023-04-24T07:21:56.105Z,2.15
2023-04-24T07:24:23.912Z,2.47
2023-04-24T07:26:53.135Z,2.38
2023-04-24T07:29:22.743Z,1.80
2023-04-24T07:31:49.549Z,2.33
2023-04-24T07:34:18.672Z,1.75
2023-04-24T07:36:45.401Z,2.20
2023-04-24T07:39:14.467Z,1.80
2023-04-24T07:41:43.316Z,1.83
2023-04-24T07:44:10.056Z,1.67
2023-04-24T07:46:36.877Z,1.73
2023-04-24T07:49:13.668Z,1.65
2023-04-24T07:51:42.233Z,1.60
2023-04-24T07:54:11.306Z,1.73
2023-04-24T07:56:40.043Z,1.83
2023-04-24T07:59:07.251Z,1.02
2023-04-24T08:01:34.020Z,1.20
2023-04-24T08:04:01.133Z,1.23
2023-04-24T08:06:31.316Z,0.93
2023-04-24T08:08:58.637Z,1.17
2023-04-24T08:11:26.456Z,0.85
2023-04-24T08:13:53.197Z,1.20
2023-04-24T08:16:20.058Z,1.17
2023-04-24T08:18:48.970Z,1.13
2023-04-24T08:21:18.175Z,1.15
2023-04-24T08:23:45.587Z,1.13
2023-04-24T08:26:12.988Z,1.52
2023-04-24T08:28:41.879Z,1.25
2023-04-24T08:31:11.054Z,1.17
2023-04-24T08:33:41.840Z,1.25
2023-04-24T08:36:11.422Z,1.48
2023-04-24T08:38:43.097Z,1.00
2023-04-24T08:41:11.087Z,1.60
2023-04-24T08:43:38.784Z,1.35
2023-04-24T08:46:09.094Z,1.13
2023-04-24T08:48:39.901Z,1.40
2023-04-24T08:51:08.844Z,1.00
2023-04-24T08:53:36.837Z,1.35
2023-04-24T08:56:04.314Z,1.30
2023-04-24T08:58:32.013Z,1.40
2023-04-24T09:01:00.005Z,1.45
2023-04-24T09:03:28.951Z,1.63
2023-04-24T09:05:57.397Z,1.67
2023-04-24T09:08:25.986Z,1.52
2023-04-24T09:10:53.251Z,1.48
2023-04-24T09:13:23.136Z,1.90
2023-04-24T09:15:50.672Z,1.85
2023-04-24T09:18:20.994Z,1.75
2023-04-24T09:21:01.301Z,1.58
2023-04-24T09:23:31.429Z,1.90
2023-04-24T09:26:01.026Z,1.60
2023-04-24T09:28:30.946Z,2.88
2023-04-24T09:33:24.997Z,2.63
2023-04-24T09:35:54.585Z,1.92
2023-04-24T09:38:32.014Z,2.13
2023-04-24T09:41:04.235Z,2.58
2023-04-24T09:43:31.458Z,2.22
2023-04-24T09:45:59.722Z,2.53
2023-04-24T09:48:33.570Z,2.05
2023-04-24T09:51:02.290Z,2.05
2023-04-24T09:53:29.729Z,1.83
2023-04-24T09:55:57.019Z,1.88
2023-04-24T09:58:27.507Z,1.88
2023-04-24T10:00:57.957Z,2.00
2023-04-24T10:03:28.382Z,2.42
2023-04-24T10:05:56.138Z,2.10
2023-04-24T10:08:26.091Z,2.15
2023-04-24T10:13:20.210Z,1.80
2023-04-24T10:15:48.687Z,2.15
2023-04-24T10:18:17.485Z,2.63
2023-04-24T10:20:44.549Z,1.90
2023-04-24T10:23:12.530Z,2.50
2023-04-24T10:25:39.663Z,1.98
2023-04-24T10:28:11.023Z,2.28
2023-04-24T10:30:38.430Z,2.42
2023-04-24T10:33:06.644Z,1.90
2023-04-24T10:35:37.600Z,2.22
2023-04-24T10:38:07.393Z,1.83
2023-04-24T10:40:35.738Z,2.60
2023-04-24T10:43:08.876Z,1.98
2023-04-24T10:45:36.056Z,2.20
2023-04-24T10:48:05.967Z,1.98
2023-04-24T10:50:54.674Z,2.13
2023-04-24T10:53:24.310Z,2.10
2023-04-24T10:56:11.019Z,2.38
2023-04-24T10:58:45.507Z,2.75
2023-04-24T11:01:27.238Z,2.60
2023-04-24T11:03:58.404Z,2.58
2023-04-24T11:06:36.960Z,3.03
2023-04-24T11:09:06.502Z,2.85
2023-04-24T11:11:33.946Z,2.45
2023-04-24T11:14:01.111Z,3.53
2023-04-24T11:16:35.265Z,2.92
2023-04-24T11:19:09.620Z,2.75
2023-04-24T11:21:39.612Z,2.97
2023-04-24T11:24:25.556Z,3.00
2023-04-24T11:26:57.622Z,3.05
2023-04-24T11:29:28.699Z,3.03
2023-04-24T11:31:55.809Z,3.63
2023-04-24T11:34:24.286Z,3.95
2023-04-24T11:36:51.746Z,3.05
2023-04-24T11:39:21.008Z,3.20
2023-04-24T11:41:50.560Z,3.95
2023-04-24T11:44:21.821Z,3.75
2023-04-24T11:46:51.015Z,3.75
2023-04-24T11:49:22.809Z,4.40
2023-04-24T11:51:53.511Z,3.50
2023-04-24T11:54:20.991Z,3.30
2023-04-24T11:56:48.733Z,4.20
2023-04-24T11:59:15.734Z,3.25
2023-04-24T12:01:53.454Z,3.35
2023-04-24T12:04:22.645Z,3.47
2023-04-24T12:07:02.063Z,2.80
2023-04-24T12:09:29.041Z,3.40
2023-04-24T12:11:59.307Z,3.58
2023-04-24T12:14:28.295Z,3.50
2023-04-24T12:16:58.177Z,3.93
2023-04-24T12:19:30.439Z,3.70
2023-04-24T12:22:06.118Z,3.58
2023-04-24T12:24:33.290Z,3.90
2023-04-24T12:27:02.372Z,3.50
2023-04-24T12:29:29.347Z,3.72
2023-04-24T12:31:56.359Z,3.75
2023-04-24T12:34:25.966Z,3.67
2023-04-24T12:36:53.208Z,4.13
2023-04-24T12:39:20.996Z,6.38
2023-04-24T12:41:58.237Z,6.20
2023-04-24T12:44:32.528Z,4.50
2023-04-24T12:46:59.409Z,3.80
2023-04-24T12:49:26.256Z,4.57
2023-04-24T12:51:55.656Z,4.30
2023-04-24T12:54:22.858Z,4.63
2023-04-24T12:56:52.582Z,4.25
2023-04-24T12:59:19.691Z,3.65
2023-04-24T13:01:46.661Z,3.70
2023-04-24T13:04:13.508Z,3.50
2023-04-24T13:06:40.387Z,3.70
2023-04-24T13:09:09.308Z,4.03
2023-04-24T13:11:38.270Z,4.73
2023-04-24T13:14:07.128Z,4.10
2023-04-24T13:16:33.974Z,3.50
2023-04-24T13:19:00.910Z,3.22
2023-04-24T13:21:28.456Z,3.38
2023-04-24T13:23:55.239Z,3.30
2023-04-24T13:26:21.950Z,3.45
2023-04-24T13:28:48.688Z,3.25
2023-04-24T13:31:15.411Z,3.35
2023-04-24T13:33:44.675Z,3.30
2023-04-24T13:36:11.708Z,4.28
2023-04-24T13:38:38.613Z,3.55
2023-04-24T13:41:05.407Z,2.80
2023-04-24T13:43:32.052Z,3.22
2023-04-24T13:46:00.350Z,3.20
2023-04-24T13:48:27.568Z,3.13
2023-04-24T13:50:54.685Z,2.83
2023-04-24T13:53:21.817Z,2.83
2023-04-24T13:55:48.932Z,3.13
2023-04-24T13:58:16.024Z,3.10
2023-04-24T14:00:47.567Z,3.10
2023-04-24T14:03:14.573Z,2.83
2023-04-24T14:05:41.800Z,3.00
2023-04-24T14:08:08.448Z,2.78
2023-04-24T14:10:35.175Z,2.60
2023-04-24T14:13:01.925Z,2.70
2023-04-24T14:15:29.404Z,2.63
2023-04-24T14:17:56.237Z,3.20
2023-04-24T14:20:23.647Z,3.42
2023-04-24T14:22:50.358Z,3.70
2023-04-24T14:25:17.022Z,3.42
2023-04-24T14:27:43.760Z,4.07
2023-04-24T14:30:10.710Z,3.35
2023-04-24T14:32:39.479Z,3.33
2023-04-24T14:35:07.828Z,3.42
2023-04-24T14:37:34.695Z,3.70
2023-04-24T14:42:33.331Z,3.47
2023-04-24T14:45:02.791Z,3.58
2023-04-24T14:47:30.405Z,3.03
2023-04-24T14:50:01.792Z,4.22
2023-04-24T14:52:28.740Z,3.13
2023-04-24T14:54:55.675Z,3.40
2023-04-24T14:57:22.467Z,3.92
2023-04-24T14:59:49.175Z,4.32
2023-04-24T15:02:19.107Z,3.50
2023-04-24T15:04:50.130Z,3.08
2023-04-24T15:07:17.117Z,3.42
2023-04-24T15:09:44.058Z,2.92
2023-04-24T15:12:13.257Z,3.15
2023-04-24T15:14:42.264Z,2.80
2023-04-24T15:17:11.396Z,3.00
2023-04-24T15:19:38.105Z,3.17
2023-04-24T15:22:09.788Z,2.72
2023-04-24T15:24:36.478Z,3.15
2023-04-24T15:27:08.021Z,2.90
2023-04-24T15:29:36.933Z,2.60
2023-04-24T15:32:03.821Z,2.50
2023-04-24T15:34:30.557Z,2.92
2023-04-24T15:36:57.297Z,2.95
2023-04-24T15:39:25.408Z,2.60
2023-04-24T15:41:52.762Z,2.55
2023-04-24T15:44:19.717Z,3.20
2023-04-24T15:46:46.539Z,3.00
2023-04-24T15:49:13.200Z,2.75
2023-04-24T15:51:39.959Z,2.92
2023-04-24T15:54:06.772Z,2.55
2023-04-24T15:56:33.823Z,2.72
2023-04-24T15:59:03.926Z,3.28
2023-04-24T16:01:33.897Z,2.80
2023-04-24T16:04:00.934Z,2.47
2023-04-24T16:06:27.900Z,3.20
2023-04-24T16:08:59.514Z,2.88
2023-04-24T16:11:27.200Z,2.67
2023-04-24T16:13:53.949Z,2.72
2023-04-24T16:16:20.733Z,3.13
2023-04-24T16:18:50.033Z,3.05
2023-04-24T16:21:17.437Z,2.45
2023-04-24T16:23:44.095Z,2.75
2023-04-24T16:26:10.952Z,2.78
2023-04-24T16:28:37.865Z,3.22
2023-04-24T16:31:06.734Z,3.03
2023-04-24T16:33:33.489Z,3.10
2023-04-24T16:36:00.425Z,2.42
2023-04-24T16:38:27.553Z,2.92
2023-04-24T16:40:56.764Z,2.83
2023-04-24T16:43:23.578Z,3.67
2023-04-24T16:45:50.259Z,3.10
2023-04-24T16:48:17.710Z,2.88
2023-04-24T16:50:45.917Z,2.63
2023-04-24T16:53:12.615Z,3.20
2023-04-24T16:55:44.496Z,3.05
2023-04-24T16:58:11.161Z,3.05
2023-04-24T17:00:38.477Z,2.65
2023-04-24T17:03:08.091Z,2.80
2023-04-24T17:05:36.447Z,3.08
2023-04-24T17:08:03.614Z,2.70
2023-04-24T17:10:35.257Z,3.35
2023-04-24T17:13:01.972Z,2.65
2023-04-24T17:15:28.753Z,2.30
2023-04-24T17:17:56.601Z,2.47
2023-04-24T17:20:27.004Z,3.00
2023-04-24T17:22:55.739Z,3.05
2023-04-24T17:25:25.081Z,3.00
2023-04-24T17:27:51.786Z,2.30
2023-04-24T17:30:18.752Z,2.22
2023-04-24T17:32:46.476Z,2.95
2023-04-24T17:35:13.311Z,3.20
2023-04-24T17:37:42.435Z,2.72
2023-04-24T17:40:09.982Z,2.60
2023-04-24T17:42:41.458Z,2.63
2023-04-24T17:45:09.025Z,3.08
2023-04-24T17:47:35.782Z,3.38
2023-04-24T17:50:02.878Z,2.63
2023-04-24T17:52:29.967Z,2.78
2023-04-24T17:54:57.033Z,2.72
2023-04-24T17:57:24.246Z,2.80
2023-04-24T17:59:53.619Z,2.90
2023-04-24T18:02:20.949Z,2.92
2023-04-24T18:04:48.444Z,3.17
2023-04-24T18:07:15.789Z,2.80
2023-04-24T18:09:45.334Z,3.22
2023-04-24T18:12:12.638Z,2.45
2023-04-24T18:14:39.723Z,2.67
2023-04-24T18:17:07.615Z,2.63
2023-04-24T18:19:37.204Z,2.78
2023-04-24T18:22:04.953Z,2.90
2023-04-24T18:24:32.110Z,2.58
2023-04-24T18:26:59.218Z,3.03
2023-04-24T18:29:26.351Z,2.90
2023-04-24T18:31:53.602Z,2.95
2023-04-24T18:34:20.728Z,2.85
2023-04-24T18:36:48.001Z,3.08
2023-04-24T18:39:15.518Z,2.67
2023-04-24T18:41:42.571Z,2.90
2023-04-24T18:44:10.623Z,2.85
2023-04-24T18:46:41.395Z,2.67
2023-04-24T18:49:08.279Z,2.53
2023-04-24T18:51:46.562Z,2.72
2023-04-24T18:54:19.646Z,3.20
2023-04-24T18:56:48.839Z,2.78
2023-04-24T18:59:15.795Z,2.83
2023-04-24T19:01:42.583Z,2.92
2023-04-24T19:04:09.907Z,3.42
2023-04-24T19:06:36.819Z,4.07
2023-04-24T19:09:03.964Z,3.85
2023-04-24T19:11:30.743Z,3.92
2023-04-24T19:14:03.125Z,4.45
2023-04-24T19:16:29.975Z,4.20
2023-04-24T19:18:56.755Z,4.10
2023-04-24T19:21:26.211Z,5.13
2023-04-24T19:23:53.088Z,4.50
2023-04-24T19:26:21.787Z,4.18
2023-04-24T19:28:48.795Z,4.95
2023-04-24T19:31:15.956Z,4.63
2023-04-24T19:33:42.684Z,6.03
2023-04-24T19:36:09.864Z,5.07
2023-04-24T19:38:36.748Z,5.22
2023-04-24T19:41:03.620Z,4.78
2023-04-24T19:43:32.453Z,5.57
2023-04-24T19:45:59.271Z,5.20
2023-04-24T19:48:31.075Z,4.97
2023-04-24T19:50:59.384Z,5.18
2023-04-24T19:53:26.271Z,4.88
2023-04-24T19:55:55.895Z,5.30
2023-04-24T19:58:24.973Z,4.55
2023-04-24T20:00:51.705Z,4.20
2023-04-24T20:03:31.215Z,3.63
2023-04-24T20:05:58.563Z,3.50
2023-04-24T20:08:27.426Z,2.55
2023-04-24T20:10:54.485Z,2.40
2023-04-24T20:13:21.454Z,1.95
2023-04-24T20:15:48.177Z,1.80
2023-04-24T20:18:15.822Z,1.90
2023-04-24T20:20:42.574Z,2.38
2023-04-24T20:23:09.419Z,1.70
2023-04-24T20:25:36.557Z,1.90
2023-04-24T20:28:03.434Z,1.90
2023-04-24T20:30:31.526Z,1.92
2023-04-24T20:33:01.129Z,1.83
2023-04-24T20:35:30.401Z,2.17
2023-04-24T20:37:57.313Z,2.20
2023-04-24T20:40:24.074Z,2.35
2023-04-24T20:42:51.271Z,1.70
2023-04-24T20:45:18.404Z,1.83
2023-04-24T20:47:45.154Z,2.10
2023-04-24T20:50:12.156Z,1.55
2023-04-24T20:52:38.915Z,1.88
2023-04-24T20:55:06.897Z,1.77
2023-04-24T20:57:33.696Z,2.15
2023-04-24T21:00:03.900Z,1.60
2023-04-24T21:02:30.776Z,1.83
2023-04-24T21:04:57.550Z,2.17
2023-04-24T21:07:26.758Z,1.90
2023-04-24T21:09:58.202Z,1.83
2023-04-24T21:12:24.897Z,2.10
2023-04-24T21:14:51.757Z,1.75
2023-04-24T21:17:18.977Z,2.65
2023-04-24T21:19:45.904Z,2.00
2023-04-24T21:22:12.593Z,2.10
2023-04-24T21:24:39.346Z,2.35
2023-04-24T21:27:07.314Z,1.75
2023-04-24T21:29:36.275Z,1.50
2023-04-24T21:32:03.525Z,2.22
2023-04-24T21:34:32.681Z,2.10
2023-04-24T21:36:59.404Z,1.97
2023-04-24T21:39:28.570Z,2.30
2023-04-24T21:41:55.446Z,2.25
2023-04-24T21:44:22.113Z,2.30
2023-04-24T21:46:48.859Z,2.53
2023-04-24T21:49:15.614Z,2.30
2023-04-24T21:51:42.398Z,2.00
2023-04-24T21:54:11.639Z,2.58
2023-04-24T21:56:41.468Z,2.30
2023-04-24T21:59:11.098Z,2.10
2023-04-24T22:01:38.331Z,2.15
2023-04-24T22:04:08.238Z,2.15
2023-04-24T22:06:35.475Z,2.40
2023-04-24T22:09:02.295Z,2.30
2023-04-24T22:11:29.130Z,2.20
2023-04-24T22:13:55.966Z,2.35
2023-04-24T22:16:26.864Z,2.70
2023-04-24T22:18:56.585Z,2.47
2023-04-24T22:21:25.945Z,2.75
2023-04-24T22:23:55.284Z,2.42
2023-04-24T22:26:26.673Z,2.78
2023-04-24T22:28:53.474Z,2.60
2023-04-24T22:31:20.361Z,2.58
2023-04-24T22:33:49.825Z,2.50
2023-04-24T22:36:16.981Z,3.08
2023-04-24T22:38:46.121Z,2.50
2023-04-24T22:41:13.113Z,2.50
2023-04-24T22:43:39.863Z,2.50
2023-04-24T22:46:06.643Z,2.17
2023-04-24T22:48:34.526Z,2.17
2023-04-24T22:51:03.730Z,2.10
2023-04-24T22:53:30.586Z,2.40
2023-04-24T22:55:57.388Z,2.10
2023-04-24T22:58:24.702Z,2.28
2023-04-24T23:00:51.609Z,2.10
2023-04-24T23:03:23.706Z,2.38
2023-04-24T23:05:50.705Z,2.22
2023-04-24T23:08:17.365Z,2.33
2023-04-24T23:10:44.035Z,2.20
2023-04-24T23:13:10.732Z,2.20
2023-04-24T23:15:39.308Z,2.50
2023-04-24T23:18:06.157Z,2.53
2023-04-24T23:20:32.953Z,2.33
2023-04-24T23:23:00.679Z,2.45
2023-04-24T23:25:27.481Z,2.28
2023-04-24T23:27:56.510Z,2.33
2023-04-24T23:30:23.394Z,2.27
2023-04-24T23:32:50.081Z,2.17
2023-04-24T23:35:16.943Z,3.00
2023-04-24T23:37:45.994Z,2.22
2023-04-24T23:40:12.799Z,2.10
2023-04-24T23:42:39.684Z,2.70
2023-04-24T23:45:07.794Z,2.28
2023-04-24T23:47:34.572Z,2.63
2023-04-24T23:50:01.333Z,2.47
2023-04-24T23:52:28.105Z,2.58
2023-04-24T23:54:54.892Z,2.45
2023-04-24T23:57:21.734Z,2.22
2023-04-24T23:59:48.426Z,2.65
